Time;durP1;ratioP1;P1;durP2;ratioP2;P2;SDS_P1;SDS_P2;PMS_P1;PMS_P2;Temp;Humidity;BMP_temperature;BMP_pressure;BME280_temperature;BME280_humidity;BME280_pressure;Samples;Min_cycle;Max_cycle;Signal;HPM_P1;HPM_P2
2023/06/09 00:04:13;;;;;;;1.10;1.00;;;;;;;19.65;57.69;96246.22;10495776;28;20036;-32
2023/06/09 00:09:13;;;;;;;0.63;0.50;;;;;;;19.65;57.98;96243.69;10495934;28;20341;-32
2023/06/09 00:14:13;;;;;;;0.60;0.60;;;;;;;19.65;57.86;96247.91;10494682;28;20044;-33
2023/06/09 00:19:16;;;;;;;1.30;0.60;;;;;;;19.79;58.92;96239.28;10495880;28;20283;-33
2023/06/09 00:24:19;;;;;;;0.50;0.50;;;;;;;19.96;58.03;96233.97;10490870;28;20028;-33
2023/06/09 00:29:23;;;;;;;0.40;0.40;;;;;;;19.86;58.34;96232.44;10495375;28;20056;-33
2023/06/09 00:34:24;;;;;;;0.55;0.55;;;;;;;19.77;58.19;96238.44;10493707;28;20441;-33
2023/06/09 00:39:25;;;;;;;0.60;0.60;;;;;;;19.74;58.18;96237.66;10476642;28;20085;-34
2023/06/09 00:44:25;;;;;;;0.50;0.40;;;;;;;19.71;58.23;96228.38;10474900;28;20434;-33
2023/06/09 00:49:28;;;;;;;0.60;0.60;;;;;;;19.69;58.09;96226.72;10489836;28;20063;-34
2023/06/09 00:54:29;;;;;;;0.77;0.70;;;;;;;19.71;58.17;96233.47;10494287;28;20421;-34
2023/06/09 00:59:30;;;;;;;0.80;0.80;;;;;;;19.65;57.93;96227.59;10490422;28;20032;-32
2023/06/09 01:04:34;;;;;;;0.70;0.70;;;;;;;19.67;57.90;96238.59;10475805;28;20028;-33
2023/06/09 01:09:45;;;;;;;0.70;0.70;;;;;;;19.68;57.85;96241.09;10480740;28;20037;-32
2023/06/09 01:15:06;;;;;;;0.70;0.70;;;;;;;19.84;59.29;96234.16;10492705;28;20033;-33
2023/06/09 01:20:08;;;;;;;0.43;0.43;;;;;;;19.92;58.40;96224.72;10478015;28;20028;-33
2023/06/09 01:25:34;;;;;;;0.40;0.40;;;;;;;19.82;58.45;96230.78;10491401;28;20032;-33
2023/06/09 01:30:36;;;;;;;0.68;0.57;;;;;;;19.76;58.43;96235.94;10474608;28;20029;-32
2023/06/09 01:35:38;;;;;;;0.65;0.50;;;;;;;19.69;58.41;96230.09;10471673;28;20036;-33
2023/06/09 01:40:39;;;;;;;1.08;0.98;;;;;;;19.68;57.98;96225.06;10492260;28;20135;-32
2023/06/09 01:45:40;;;;;;;0.65;0.65;;;;;;;19.67;58.12;96223.38;10471063;28;20059;-33
2023/06/09 01:50:51;;;;;;;0.73;0.73;;;;;;;19.66;57.91;96229.31;10491133;28;20482;-33
2023/06/09 01:55:58;;;;;;;0.75;0.75;;;;;;;19.65;57.66;96235.22;10491431;28;20287;-34
2023/06/09 02:00:58;;;;;;;;;;;;;;;19.65;57.68;96219.97;10472797;28;20552;-34
2023/06/09 02:06:00;;;;;;;0.73;0.65;;;;;;;19.62;59.28;96207.34;10473648;28;19912;-33
2023/06/09 02:11:01;;;;;;;0.50;0.50;;;;;;;19.87;58.30;96223.94;10465024;28;20150;-32
2023/06/09 02:16:02;;;;;;;0.50;0.50;;;;;;;19.94;57.86;96213.66;10491455;28;20187;-33
2023/06/09 02:21:02;;;;;;;0.63;0.63;;;;;;;19.81;58.16;96221.47;10487436;28;20040;-32
2023/06/09 02:26:03;;;;;;;0.47;0.47;;;;;;;19.74;58.14;96209.72;10490347;28;20028;-32
2023/06/09 02:31:04;;;;;;;0.63;0.63;;;;;;;19.71;58.13;96212.28;10495719;28;20037;-33
2023/06/09 02:36:05;;;;;;;0.88;0.70;;;;;;;19.67;57.89;96196.25;10473260;28;20035;-32
2023/06/09 02:41:06;;;;;;;3.28;0.90;;;;;;;19.66;57.60;96203.91;10486266;28;20050;-34
2023/06/09 02:46:06;;;;;;;0.52;0.52;;;;;;;19.65;57.55;96202.22;10473261;28;20028;-32
2023/06/09 02:51:07;;;;;;;0.77;0.77;;;;;;;19.65;57.73;96208.13;10472309;28;20024;-32
2023/06/09 02:56:09;;;;;;;0.57;0.55;;;;;;;19.64;57.75;96201.38;10472606;28;20548;-33
2023/06/09 03:01:17;;;;;;;0.65;0.60;;;;;;;19.63;58.68;96199.72;10471810;28;20029;-33
2023/06/09 03:06:19;;;;;;;0.50;0.50;;;;;;;19.86;58.39;96202.75;10466131;28;20041;-33
2023/06/09 03:11:20;;;;;;;0.50;0.50;;;;;;;19.95;57.50;96196.72;10463733;28;20039;-33
2023/06/09 03:16:21;;;;;;;0.50;0.50;;;;;;;19.81;57.81;96202.00;10488041;28;20027;-33
2023/06/09 03:21:24;;;;;;;0.60;0.50;;;;;;;19.72;57.94;96193.66;10471508;28;20438;-32
2023/06/09 03:26:25;;;;;;;1.08;0.77;;;;;;;19.72;58.09;96196.19;10469071;28;20060;-33
2023/06/09 03:31:26;;;;;;;0.80;0.77;;;;;;;19.69;57.89;96203.88;10470111;28;20060;-32
2023/06/09 03:36:27;;;;;;;0.70;0.70;;;;;;;19.66;57.59;96193.75;10475246;28;20024;-33
2023/06/09 03:41:28;;;;;;;1.02;0.73;;;;;;;19.65;57.95;96195.44;10477036;28;20029;-33
2023/06/09 03:46:30;;;;;;;0.60;0.60;;;;;;;19.65;57.66;96199.66;10478684;28;20550;-33
2023/06/09 03:51:31;;;;;;;0.60;0.60;;;;;;;19.65;57.44;96192.06;10477475;28;20037;-34
2023/06/09 03:56:34;;;;;;;0.50;0.50;;;;;;;19.65;58.31;96197.13;10477134;28;20017;-33
2023/06/09 04:01:34;;;;;;;0.60;0.60;;;;;;;19.86;58.34;96207.03;10478171;28;20039;-32
2023/06/09 04:06:36;;;;;;;0.70;0.70;;;;;;;19.96;57.68;96204.34;10495084;28;20033;-33
2023/06/09 04:11:37;;;;;;;0.60;0.60;;;;;;;19.82;58.22;96211.31;10477883;28;20039;-34
2023/06/09 04:16:38;;;;;;;0.93;0.80;;;;;;;19.75;58.05;96207.16;10487876;28;20028;-33
2023/06/09 04:21:38;;;;;;;0.95;0.80;;;;;;;19.70;57.80;96211.47;10477499;28;20581;-32
2023/06/09 04:26:39;;;;;;;0.63;0.60;;;;;;;19.70;57.85;96208.09;10476497;28;20175;-32
2023/06/09 04:31:42;;;;;;;0.70;0.70;;;;;;;19.68;57.94;96202.19;10475531;28;20024;-32
2023/06/09 04:36:44;;;;;;;1.00;0.90;;;;;;;19.68;57.08;96207.28;10476955;28;20024;-32
2023/06/09 04:41:49;;;;;;;1.08;0.90;;;;;;;19.66;57.68;96204.75;10470104;28;20062;-33
2023/06/09 04:46:51;;;;;;;1.05;0.98;;;;;;;19.64;57.71;96206.47;10475275;28;20081;-33
2023/06/09 04:51:54;;;;;;;1.05;1.00;;;;;;;19.66;58.23;96212.34;10475748;28;20037;-34
2023/06/09 04:57:03;;;;;;;0.55;0.55;;;;;;;19.85;58.44;96215.50;10474027;28;20070;-32
2023/06/09 05:02:05;;;;;;;0.55;0.55;;;;;;;19.96;57.92;96217.03;10493986;28;20445;-33
2023/06/09 05:07:06;;;;;;;0.60;0.60;;;;;;;19.76;57.53;96205.47;10474254;28;20029;-33
2023/06/09 05:12:08;;;;;;;0.93;0.80;;;;;;;19.77;58.05;96207.16;10474904;28;20371;-32
2023/06/09 05:17:08;;;;;;;0.60;0.60;;;;;;;19.69;57.92;96204.69;10466341;28;20071;-34
2023/06/09 05:22:09;;;;;;;0.52;0.52;;;;;;;19.68;57.81;96205.56;10475001;28;20052;-32
2023/06/09 05:27:10;;;;;;;0.70;0.70;;;;;;;19.66;57.52;96209.00;10485253;28;20036;-34
2023/06/09 05:32:11;;;;;;;0.65;0.65;;;;;;;19.64;57.61;96210.69;10471422;28;20029;-32
2023/06/09 05:37:15;;;;;;;0.50;0.50;;;;;;;19.65;57.42;96223.38;10492920;28;20565;-32
2023/06/09 05:42:15;;;;;;;0.63;0.63;;;;;;;19.65;57.62;96222.53;10467521;28;20052;-32
2023/06/09 05:47:16;;;;;;;0.60;0.60;;;;;;;19.65;57.89;96225.06;10492334;28;20467;-32
2023/06/09 05:52:16;;;;;;;0.80;0.80;;;;;;;19.83;58.80;96223.13;10485292;28;20039;-33
2023/06/09 05:57:18;;;;;;;0.60;0.60;;;;;;;19.97;58.13;96225.50;10491666;28;20707;-32
2023/06/09 06:02:18;;;;;;;0.80;0.80;;;;;;;19.83;58.04;96233.31;10489006;28;20032;-34
2023/06/09 06:07:20;;;;;;;0.60;0.60;;;;;;;19.75;57.97;96235.09;10491647;28;20119;-32
2023/06/09 06:12:20;;;;;;;0.80;0.80;;;;;;;19.70;57.75;96230.94;10484332;28;20043;-33
2023/06/09 06:17:21;;;;;;;0.60;0.60;;;;;;;19.69;57.80;96239.41;10494166;28;20056;-34
2023/06/09 06:22:21;;;;;;;0.77;0.77;;;;;;;19.68;57.68;96242.81;10491311;28;20089;-33
2023/06/09 06:27:22;;;;;;;0.73;0.70;;;;;;;19.66;57.84;96240.28;10484588;28;20297;-33
2023/06/09 06:32:23;;;;;;;0.77;0.73;;;;;;;19.63;57.74;96244.56;10491135;28;20086;-33
2023/06/09 06:37:23;;;;;;;0.60;0.60;;;;;;;19.65;57.54;96242.84;10486712;28;20040;-33
2023/06/09 06:42:23;;;;;;;0.90;0.90;;;;;;;19.64;57.65;96242.03;10491072;28;20043;-32
2023/06/09 06:47:35;;;;;;;0.60;0.60;;;;;;;19.83;58.30;96237.56;10471909;28;20028;-32
2023/06/09 06:52:36;;;;;;;0.88;0.82;;;;;;;19.97;58.06;96250.91;10492040;28;20045;-32
2023/06/09 06:57:38;;;;;;;0.70;0.70;;;;;;;19.84;58.07;96249.41;10490602;28;20028;-33
2023/06/09 07:02:39;;;;;;;0.80;0.70;;;;;;;19.74;58.12;96247.81;10484549;28;20033;-32
2023/06/09 07:07:40;;;;;;;0.95;0.90;;;;;;;19.72;58.22;96257.16;10490273;28;20060;-33
2023/06/09 07:12:41;;;;;;;0.70;0.70;;;;;;;19.69;58.17;96250.41;10487992;28;20111;-32
2023/06/09 07:17:41;;;;;;;1.05;0.95;;;;;;;19.69;57.83;96259.75;10496929;28;20048;-32
2023/06/09 07:22:42;;;;;;;0.73;0.73;;;;;;;19.68;57.46;96253.81;10498021;28;20048;-33
2023/06/09 07:27:43;;;;;;;1.10;1.00;;;;;;;19.68;57.90;96258.88;10496434;28;20330;-33
2023/06/09 07:32:43;;;;;;;1.00;0.90;;;;;;;19.69;57.74;96257.19;10497688;28;20094;-32
2023/06/09 07:37:45;;;;;;;1.27;0.90;;;;;;;19.67;57.84;96257.22;10493289;28;20054;-33
2023/06/09 07:42:47;;;;;;;0.70;0.70;;;;;;;19.82;59.01;96253.63;10497011;28;20379;-33
2023/06/09 07:47:48;;;;;;;0.57;0.55;;;;;;;19.96;57.99;96256.84;10493562;28;20032;-33
2023/06/09 07:52:48;;;;;;;0.95;0.82;;;;;;;19.84;58.34;96254.47;10492576;28;20036;-33
2023/06/09 07:57:49;;;;;;;0.70;0.70;;;;;;;19.76;58.26;96246.94;10496501;28;20042;-33
2023/06/09 08:02:50;;;;;;;1.20;1.10;;;;;;;19.74;58.05;96253.75;10495281;28;20024;-33
2023/06/09 08:08:00;;;;;;;0.85;0.85;;;;;;;19.73;58.16;96253.75;10478000;28;20137;-32
2023/06/09 08:13:00;;;;;;;1.15;0.95;;;;;;;19.70;57.95;96239.41;10490633;28;20031;-33
2023/06/09 08:18:01;;;;;;;1.00;0.90;;;;;;;19.70;57.70;96233.47;10494558;28;20483;-32
2023/06/09 08:23:02;;;;;;;0.83;0.83;;;;;;;19.68;58.03;96223.34;10493547;28;20384;-32
2023/06/09 08:28:02;;;;;;;0.80;0.80;;;;;;;19.66;57.90;96221.69;10493436;28;20041;-34
2023/06/09 08:33:02;;;;;;;0.88;0.82;;;;;;;19.69;58.44;96224.19;10495374;28;20112;-32
2023/06/09 08:38:03;;;;;;;0.57;0.50;;;;;;;19.87;58.71;96221.41;10494300;28;20024;-32
2023/06/09 08:43:05;;;;;;;0.70;0.70;;;;;;;19.98;58.45;96215.31;10494939;28;20039;-32
2023/06/09 08:48:09;;;;;;;0.73;0.70;;;;;;;19.87;58.35;96222.25;10494101;28;20430;-33
2023/06/09 08:53:10;;;;;;;0.57;0.57;;;;;;;19.78;58.49;96217.31;10488588;28;20044;-32
2023/06/09 08:58:12;;;;;;;0.77;0.75;;;;;;;19.76;58.25;96211.38;10493084;28;20033;-32
2023/06/09 09:03:12;;;;;;;0.80;0.70;;;;;;;19.75;58.20;96211.41;10487780;28;20032;-33
2023/06/09 09:08:16;;;;;;;1.17;1.08;;;;;;;19.73;58.21;96220.72;10494404;28;20033;-32
2023/06/09 09:13:18;;;;;;;1.10;1.00;;;;;;;19.72;58.32;96209.75;10492986;28;20033;-32
2023/06/09 09:18:19;;;;;;;1.42;1.30;;;;;;;19.72;58.26;96208.91;10488410;28;20102;-33
2023/06/09 09:23:29;;;;;;;1.08;0.90;;;;;;;19.72;58.29;96203.81;10486046;28;20073;-35
2023/06/09 09:28:40;;;;;;;1.13;1.10;;;;;;;19.74;58.67;96212.25;10491365;28;20032;-32
2023/06/09 09:33:47;;;;;;;0.70;0.60;;;;;;;19.90;58.60;96214.59;10493260;28;20075;-33
2023/06/09 09:38:48;;;;;;;0.80;0.80;;;;;;;19.98;58.22;96207.69;10493611;28;20024;-32
2023/06/09 09:43:54;;;;;;;0.60;0.60;;;;;;;19.89;58.97;96207.81;10489822;28;20024;-34
2023/06/09 09:48:55;;;;;;;0.65;0.65;;;;;;;19.82;58.73;96210.44;10493587;28;20406;-33
2023/06/09 09:53:58;;;;;;;0.70;0.70;;;;;;;19.80;58.77;96204.56;10498558;28;20024;-34
2023/06/09 09:58:59;;;;;;;0.80;0.80;;;;;;;19.77;58.62;96197.00;10490060;28;20028;-32
2023/06/09 10:04:01;;;;;;;1.20;1.10;;;;;;;19.75;58.27;96194.47;10490415;28;20032;-33
2023/06/09 10:09:03;;;;;;;0.90;0.90;;;;;;;19.76;58.67;96195.31;10485299;28;20032;-33
2023/06/09 10:14:03;;;;;;;1.30;1.20;;;;;;;19.74;58.57;96189.38;10492475;28;20428;-33
2023/06/09 10:19:05;;;;;;;1.10;1.00;;;;;;;19.75;58.41;96194.47;10488678;28;20036;-34
2023/06/09 10:24:06;;;;;;;0.98;0.90;;;;;;;19.75;58.63;96194.47;10491240;28;20287;-32
2023/06/09 10:29:09;;;;;;;0.70;0.60;;;;;;;19.91;59.42;96179.88;10488476;28;20032;-33
2023/06/09 10:34:12;;;;;;;0.60;0.60;;;;;;;20.04;58.78;96187.31;10489902;28;20491;-33
2023/06/09 10:39:17;;;;;;;0.68;0.60;;;;;;;19.90;58.96;96183.25;10491144;28;20032;-32
2023/06/09 10:44:32;;;;;;;0.65;0.65;;;;;;;19.83;58.76;96177.41;10490793;28;20028;-33
2023/06/09 10:49:37;;;;;;;1.17;1.08;;;;;;;19.80;58.74;96174.06;10491634;28;20041;-32
2023/06/09 10:54:38;;;;;;;0.70;0.70;;;;;;;19.79;58.85;96174.94;10499828;28;20044;-33
2023/06/09 10:59:38;;;;;;;0.80;0.80;;;;;;;19.77;58.65;96164.78;10494793;28;20394;-33
2023/06/09 11:04:44;;;;;;;1.10;1.00;;;;;;;19.74;58.47;96156.38;10499070;28;20383;-32
2023/06/09 11:09:49;;;;;;;0.98;0.90;;;;;;;19.76;58.40;96159.75;10496624;28;20202;-33
2023/06/09 11:14:57;;;;;;;1.20;1.10;;;;;;;19.76;58.25;96147.06;10498506;28;20486;-33
2023/06/09 11:20:10;;;;;;;0.98;0.88;;;;;;;19.76;59.57;96149.59;10494760;28;20035;-32
2023/06/09 11:25:19;;;;;;;0.80;0.80;;;;;;;19.94;59.05;96139.16;10492530;28;20502;-33
2023/06/09 11:30:21;;;;;;;0.60;0.60;;;;;;;20.03;58.54;96136.47;10497642;28;20037;-32
2023/06/09 11:35:27;;;;;;;0.70;0.70;;;;;;;19.90;59.04;96132.44;10489682;28;20041;-32
2023/06/09 11:40:30;;;;;;;0.63;0.63;;;;;;;19.82;58.67;96131.69;10487300;28;20055;-33
2023/06/09 11:45:31;;;;;;;0.75;0.75;;;;;;;19.79;58.72;96134.28;10486312;28;20078;-33
2023/06/09 11:50:44;;;;;;;0.80;0.80;;;;;;;19.76;58.70;96125.00;10494626;28;20039;-32
2023/06/09 11:55:47;;;;;;;0.95;0.88;;;;;;;19.74;58.45;96120.81;10488123;28;20075;-32
2023/06/09 12:00:49;;;;;;;0.93;0.90;;;;;;;19.75;58.50;96115.72;10488333;28;20052;-34
2023/06/09 12:05:50;;;;;;;1.10;1.00;;;;;;;19.75;58.52;96119.97;10494002;28;20059;-33
2023/06/09 12:10:51;;;;;;;1.17;1.08;;;;;;;19.76;58.05;96119.13;10488485;28;20033;-32
2023/06/09 12:15:52;;;;;;;0.80;0.80;;;;;;;19.76;59.58;96106.41;10493777;28;20032;-32
2023/06/09 12:20:54;;;;;;;0.73;0.73;;;;;;;19.94;59.15;96106.13;10492371;28;20024;-33
2023/06/09 12:25:55;;;;;;;0.60;0.60;;;;;;;20.03;58.38;96103.44;10493504;28;20055;-34
2023/06/09 12:31:07;;;;;;;0.60;0.60;;;;;;;19.89;58.75;96102.81;10492288;28;20032;-32
2023/06/09 12:36:10;;;;;;;0.60;0.60;;;;;;;19.82;58.85;96098.69;10474108;28;1097789;-35
2023/06/09 12:41:11;;;;;;;1.00;0.80;;;;;;;19.75;58.80;96094.59;10494854;28;20055;-34
2023/06/09 12:46:13;;;;;;;0.80;0.80;;;;;;;19.78;58.65;96094.53;10492433;28;20068;-32
2023/06/09 12:51:13;;;;;;;1.13;1.02;;;;;;;19.77;58.49;96090.31;10500701;28;20024;-33
2023/06/09 12:56:13;;;;;;;0.97;0.93;;;;;;;19.76;58.59;96081.00;10492591;28;20051;-33
2023/06/09 13:01:14;;;;;;;0.97;0.93;;;;;;;19.72;58.53;96082.75;10494685;28;20637;-33
2023/06/09 13:06:15;;;;;;;0.88;0.88;;;;;;;19.75;58.49;96082.69;10486423;28;20415;-33
2023/06/09 13:11:16;;;;;;;0.95;0.90;;;;;;;19.79;60.53;96080.97;10487880;28;20043;-33
2023/06/09 13:16:16;;;;;;;0.55;0.55;;;;;;;19.96;59.14;96079.00;10486316;28;20039;-33
2023/06/09 13:21:17;;;;;;;0.40;0.40;;;;;;;20.03;58.31;96088.19;10493351;28;20445;-33
2023/06/09 13:26:17;;;;;;;0.70;0.70;;;;;;;19.89;59.02;96079.94;10500476;28;20028;-32
2023/06/09 13:31:17;;;;;;;0.53;0.53;;;;;;;19.85;58.89;96083.41;10492843;28;20469;-33
2023/06/09 13:36:19;;;;;;;0.80;0.80;;;;;;;19.82;58.98;96066.50;10491610;28;20084;-32
2023/06/09 13:41:19;;;;;;;1.00;0.90;;;;;;;19.79;59.03;96060.63;10490379;28;20063;-33
2023/06/09 13:46:19;;;;;;;0.90;0.90;;;;;;;19.79;58.77;96055.56;10492275;28;20036;-33
2023/06/09 13:51:20;;;;;;;0.70;0.70;;;;;;;19.78;58.72;96049.66;10488437;28;20515;-32
2023/06/09 13:56:21;;;;;;;1.20;1.10;;;;;;;19.77;58.63;96042.88;10492085;28;20414;-33
2023/06/09 14:01:21;;;;;;;0.90;0.90;;;;;;;19.77;58.50;96044.59;10487890;28;20415;-33
2023/06/09 14:06:25;;;;;;;0.75;0.75;;;;;;;19.80;60.94;96040.31;10490838;28;20094;-33
2023/06/09 14:11:25;;;;;;;0.85;0.70;;;;;;;19.98;59.01;96034.06;10490508;28;20024;-33
2023/06/09 14:16:26;;;;;;;0.70;0.70;;;;;;;20.03;58.55;96024.69;10486904;28;20037;-32
2023/06/09 14:21:26;;;;;;;0.70;0.70;;;;;;;19.90;58.96;96015.56;10491243;28;20498;-32
2023/06/09 14:26:27;;;;;;;0.70;0.70;;;;;;;19.82;58.91;96013.16;10483830;28;20059;-31
2023/06/09 14:31:27;;;;;;;0.70;0.70;;;;;;;19.77;58.83;96001.41;10491273;28;20387;-33
2023/06/09 14:36:28;;;;;;;0.80;0.80;;;;;;;19.77;58.75;96001.41;10490063;28;20400;-32
2023/06/09 14:41:28;;;;;;;0.70;0.70;;;;;;;19.77;58.55;95994.63;10489983;28;20071;-33
2023/06/09 14:46:29;;;;;;;0.90;0.90;;;;;;;19.78;58.68;95990.38;10491151;28;20352;-32
2023/06/09 14:51:29;;;;;;;0.70;0.70;;;;;;;19.80;58.86;95988.66;10486280;28;20055;-32
2023/06/09 14:56:30;;;;;;;0.82;0.80;;;;;;;19.80;58.51;95988.66;10490803;28;20047;-33
2023/06/09 15:01:30;;;;;;;0.97;0.80;;;;;;;19.82;61.10;96002.16;10487687;28;20399;-33
2023/06/09 15:06:32;;;;;;;0.70;0.70;;;;;;;19.99;59.06;96000.16;10491226;28;20294;-33
2023/06/09 15:11:32;;;;;;;0.60;0.60;;;;;;;20.02;58.62;96003.50;10488659;28;20108;-32
2023/06/09 15:16:32;;;;;;;0.73;0.73;;;;;;;19.90;59.04;96002.88;10489301;28;20115;-33
2023/06/09 15:21:33;;;;;;;0.80;0.63;;;;;;;19.84;58.95;95992.84;10490708;28;20032;-31
2023/06/09 15:26:36;;;;;;;0.95;0.90;;;;;;;19.80;58.76;96004.75;10489178;28;20032;-33
2023/06/09 15:31:37;;;;;;;1.20;1.10;;;;;;;19.80;58.69;95999.66;10484440;28;20086;-35
2023/06/09 15:36:37;;;;;;;11.30;1.90;;;;;;;19.80;58.60;95993.72;10493628;28;20499;-33
2023/06/09 15:41:37;;;;;;;1.10;1.00;;;;;;;19.80;58.59;95993.72;10492254;28;20036;-34
2023/06/09 15:46:38;;;;;;;3.40;1.60;;;;;;;19.74;58.37;95978.59;10496949;28;20040;-33
2023/06/09 15:51:40;;;;;;;1.97;1.57;;;;;;;19.77;58.50;95997.16;10496338;28;20301;-32
2023/06/09 15:56:41;;;;;;;1.58;1.42;;;;;;;19.82;61.32;95987.78;10496790;28;20033;-33
2023/06/09 16:01:41;;;;;;;0.70;0.70;;;;;;;19.99;59.01;95985.78;10495538;28;20409;-33
2023/06/09 16:06:41;;;;;;;0.93;0.60;;;;;;;20.06;58.52;95984.00;10496420;28;20294;-33
2023/06/09 16:11:42;;;;;;;0.70;0.70;;;;;;;19.93;59.09;95977.44;10495087;28;20067;-32
2023/06/09 16:16:42;;;;;;;0.83;0.83;;;;;;;19.88;59.02;95972.44;10495688;28;20035;-33
2023/06/09 16:21:43;;;;;;;1.60;1.43;;;;;;;19.86;59.11;95968.25;10487874;28;20819;-33
2023/06/09 16:26:43;;;;;;;1.35;1.20;;;;;;;19.83;59.02;95968.31;10494143;28;20514;-33
2023/06/09 16:31:44;;;;;;;1.48;1.38;;;;;;;19.83;58.83;95968.31;10504429;28;20044;-34
2023/06/09 16:36:44;;;;;;;1.40;1.30;;;;;;;19.82;58.88;95958.97;10493816;28;20410;-33
2023/06/09 16:41:45;;;;;;;1.73;1.60;;;;;;;19.82;58.91;95961.50;10494294;28;20379;-33
2023/06/09 16:46:45;;;;;;;1.23;1.13;;;;;;;19.82;58.92;95969.13;10488158;28;20040;-33
2023/06/09 16:51:45;;;;;;;1.30;1.20;;;;;;;19.85;61.47;95974.19;10494913;28;20325;-33
2023/06/09 16:56:46;;;;;;;0.97;0.83;;;;;;;20.04;59.09;95980.63;10492894;28;20043;-33
2023/06/09 17:01:46;;;;;;;0.67;0.67;;;;;;;20.08;58.90;95984.81;10495390;28;20036;-32
2023/06/09 17:06:46;;;;;;;0.67;0.63;;;;;;;19.95;59.49;95989.25;10493151;28;20366;-33
2023/06/09 17:11:49;;;;;;;0.80;0.80;;;;;;;19.90;59.33;95990.16;10492431;28;20036;-33
2023/06/09 17:16:50;;;;;;;1.30;1.20;;;;;;;19.88;59.36;95991.91;10493784;28;20107;-34
2023/06/09 17:21:50;;;;;;;1.20;1.10;;;;;;;19.85;59.32;95994.50;10491281;28;20562;-32
2023/06/09 17:26:51;;;;;;;1.20;1.10;;;;;;;19.83;59.08;95998.78;10490895;28;20955;-32
2023/06/09 17:31:53;;;;;;;1.38;1.27;;;;;;;19.78;58.88;95995.47;10493233;28;20039;-34
2023/06/09 17:36:53;;;;;;;1.00;1.00;;;;;;;19.82;59.27;96008.09;10489861;28;20024;-34
2023/06/09 17:41:53;;;;;;;1.10;1.00;;;;;;;19.83;58.92;96008.94;10492860;28;20043;-33
2023/06/09 17:46:54;;;;;;;1.10;1.00;;;;;;;19.87;62.08;96013.94;10487652;28;20029;-32
2023/06/09 17:51:54;;;;;;;0.98;0.82;;;;;;;20.04;59.25;96009.44;10492121;28;20048;-33
2023/06/09 17:56:55;;;;;;;0.73;0.73;;;;;;;20.09;59.18;96022.06;10487299;28;20024;-33
2023/06/09 18:01:55;;;;;;;1.10;1.00;;;;;;;19.90;59.37;96015.56;10491926;28;20040;-32
2023/06/09 18:06:58;;;;;;;0.97;0.80;;;;;;;19.88;59.39;96030.84;10483557;28;20048;-34
2023/06/09 18:11:59;;;;;;;1.67;1.00;;;;;;;19.86;59.12;96029.19;10489896;28;20047;-33
2023/06/09 18:16:59;;;;;;;1.25;1.15;;;;;;;19.83;58.98;96035.16;10485142;28;20032;-32
2023/06/09 18:22:00;;;;;;;1.23;1.13;;;;;;;19.82;58.70;96035.19;10484451;28;20035;-33
2023/06/09 18:27:01;;;;;;;0.85;0.85;;;;;;;19.83;58.86;96044.50;10491764;28;20309;-33
2023/06/09 18:32:03;;;;;;;1.03;0.93;;;;;;;19.81;58.74;96048.75;10484942;28;20051;-32
2023/06/09 18:37:03;;;;;;;1.05;0.95;;;;;;;19.81;58.85;96046.19;10491706;28;20333;-33
2023/06/09 18:42:04;;;;;;;1.08;0.68;;;;;;;19.85;61.77;96053.75;10486766;28;20032;-33
2023/06/09 18:47:06;;;;;;;0.57;0.57;;;;;;;20.05;59.10;96053.47;10491086;28;20041;-33
2023/06/09 18:52:06;;;;;;;0.75;0.70;;;;;;;20.07;58.94;96059.34;10486583;28;20152;-34
2023/06/09 18:57:07;;;;;;;0.70;0.70;;;;;;;19.94;59.30;96068.84;10482532;28;20107;-32
2023/06/09 19:02:08;;;;;;;0.95;0.90;;;;;;;19.86;58.86;96068.13;10490771;28;20028;-33
2023/06/09 19:07:09;;;;;;;0.90;0.90;;;;;;;19.85;59.06;96078.34;10492843;28;20059;-33
2023/06/09 19:12:10;;;;;;;0.77;0.77;;;;;;;19.82;58.84;96073.28;10497905;28;20467;-33
2023/06/09 19:17:10;;;;;;;1.10;1.00;;;;;;;19.78;59.01;96076.75;10490923;28;20051;-33
2023/06/09 19:22:11;;;;;;;0.73;0.73;;;;;;;19.80;58.75;96086.03;10498174;28;20765;-32
2023/06/09 19:27:11;;;;;;;0.80;0.80;;;;;;;19.80;58.68;96090.25;10489619;28;20294;-33
2023/06/09 19:32:11;;;;;;;1.10;1.00;;;;;;;19.81;58.82;96094.47;10497697;28;20036;-34
2023/06/09 19:37:12;;;;;;;1.13;0.90;;;;;;;19.85;61.01;96103.72;10496871;28;20025;-33
2023/06/09 19:42:12;;;;;;;0.80;0.80;;;;;;;20.05;59.22;96117.00;10493906;28;20032;-33
2023/06/09 19:47:14;;;;;;;0.60;0.60;;;;;;;20.06;59.10;96121.22;10492524;28;20089;-33
2023/06/09 19:52:16;;;;;;;0.70;0.70;;;;;;;19.93;59.25;96130.69;10495826;28;20286;-33
2023/06/09 19:57:17;;;;;;;0.80;0.80;;;;;;;19.85;58.89;96131.69;10497255;28;20032;-33
2023/06/09 20:02:17;;;;;;;2.03;0.90;;;;;;;19.84;58.79;96138.44;10491659;28;20037;-34
2023/06/09 20:07:17;;;;;;;0.70;0.70;;;;;;;19.83;58.94;96148.66;10477166;28;20487;-33
2023/06/09 20:12:18;;;;;;;0.90;0.90;;;;;;;19.81;58.68;96152.88;10496044;28;20024;-33
2023/06/09 20:17:19;;;;;;;1.00;0.90;;;;;;;19.81;58.68;96157.97;10492000;28;20503;-33
2023/06/09 20:22:19;;;;;;;0.85;0.85;;;;;;;19.81;58.74;96163.06;10496692;28;20310;-33
2023/06/09 20:27:19;;;;;;;1.17;1.07;;;;;;;19.79;58.54;96164.78;10493495;28;20086;-33
2023/06/09 20:32:20;;;;;;;0.87;0.83;;;;;;;19.88;60.29;96174.81;10494113;28;20037;-32
2023/06/09 20:37:20;;;;;;;1.00;0.83;;;;;;;20.05;59.08;96175.44;10495277;28;20025;-33
2023/06/09 20:42:21;;;;;;;0.52;0.52;;;;;;;20.02;58.94;96178.00;10493771;28;20289;-33
2023/06/09 20:47:21;;;;;;;1.00;0.90;;;;;;;19.91;59.04;96178.16;10495138;28;20036;-32
2023/06/09 20:52:23;;;;;;;0.63;0.60;;;;;;;19.86;58.80;96181.63;10492044;28;20040;-33
2023/06/09 20:57:24;;;;;;;0.82;0.73;;;;;;;19.84;58.05;96183.34;10494426;28;20052;-33
2023/06/09 21:02:27;;;;;;;1.08;0.90;;;;;;;19.81;58.50;96185.91;10492473;28;20406;-33
2023/06/09 21:07:28;;;;;;;0.85;0.85;;;;;;;19.81;58.46;96183.38;10493904;28;20064;-33
2023/06/09 21:12:28;;;;;;;0.60;0.60;;;;;;;19.80;58.67;96182.53;10488771;28;20441;-33
2023/06/09 21:17:28;;;;;;;0.87;0.87;;;;;;;19.80;58.54;96186.78;10497276;28;20032;-32
2023/06/09 21:22:29;;;;;;;0.87;0.87;;;;;;;19.79;58.54;96185.94;10492883;28;20415;-33
2023/06/09 21:27:29;;;;;;;0.60;0.60;;;;;;;19.91;59.75;96184.94;10491830;28;20329;-33
2023/06/09 21:32:29;;;;;;;0.57;0.57;;;;;;;20.09;58.76;96185.53;10489070;28;20094;-34
2023/06/09 21:37:31;;;;;;;0.60;0.60;;;;;;;20.01;58.99;96189.84;10491085;28;20028;-34
2023/06/09 21:42:31;;;;;;;1.10;0.75;;;;;;;19.92;59.00;96191.72;10492704;28;20067;-32
2023/06/09 21:47:32;;;;;;;0.70;0.70;;;;;;;19.87;58.83;96201.06;10491138;28;20079;-32
2023/06/09 21:52:34;;;;;;;0.85;0.85;;;;;;;19.84;58.79;96214.66;10492377;28;20044;-33
2023/06/09 21:57:35;;;;;;;1.23;1.13;;;;;;;19.82;58.63;96211.31;10496763;28;20032;-33
2023/06/09 22:02:35;;;;;;;0.93;0.80;;;;;;;19.81;58.58;96206.22;10492717;28;20036;-34
2023/06/09 22:07:36;;;;;;;0.83;0.83;;;;;;;19.82;58.69;96210.44;10491943;28;20585;-32
2023/06/09 22:12:39;;;;;;;1.00;0.90;;;;;;;19.81;58.42;96208.78;10486567;28;20049;-33
2023/06/09 22:17:41;;;;;;;0.98;0.90;;;;;;;19.80;58.52;96209.63;10490915;28;20036;-33
2023/06/09 22:22:41;;;;;;;0.75;0.63;;;;;;;19.93;59.80;96209.44;10491368;28;20071;-34
2023/06/09 22:27:41;;;;;;;0.50;0.50;;;;;;;20.10;59.00;96207.53;10489853;28;20494;-32
2023/06/09 22:32:42;;;;;;;0.50;0.50;;;;;;;20.02;59.12;96203.41;10491165;28;20283;-32
2023/06/09 22:37:42;;;;;;;0.70;0.70;;;;;;;19.92;59.08;96212.84;10484766;28;20699;-33
2023/06/09 22:42:43;;;;;;;0.87;0.80;;;;;;;19.88;58.77;96215.47;10497782;28;20279;-34
2023/06/09 22:47:44;;;;;;;0.90;0.90;;;;;;;19.84;58.59;96201.94;10491458;28;20036;-32
2023/06/09 22:52:46;;;;;;;0.98;0.98;;;;;;;19.83;58.65;96207.06;10499665;28;20271;-32
2023/06/09 22:57:48;;;;;;;1.20;1.10;;;;;;;19.80;58.53;96202.00;10497951;28;20036;-31
2023/06/09 23:02:49;;;;;;;0.70;0.70;;;;;;;19.80;58.43;96202.00;10491576;28;20039;-34
2023/06/09 23:07:49;;;;;;;1.05;0.95;;;;;;;19.80;58.33;96196.94;10498970;28;20048;-33
2023/06/09 23:12:49;;;;;;;1.17;1.00;;;;;;;19.81;58.35;96198.59;10496653;28;20035;-33
2023/06/09 23:17:50;;;;;;;0.60;0.50;;;;;;;19.95;59.49;96201.81;10499189;28;20021;-33
2023/06/09 23:22:51;;;;;;;0.50;0.50;;;;;;;20.11;58.62;96208.41;10495790;28;20048;-33